createdAt,value
2018-07-04T00:00:54.181Z,31.27
2018-07-04T00:03:33.961Z,30.90
2018-07-04T00:06:13.657Z,33.63
2018-07-04T00:08:53.481Z,33.80
2018-07-04T00:11:33.152Z,34.57
2018-07-04T00:14:12.853Z,19.33
2018-07-04T00:16:52.586Z,32.33
2018-07-04T00:19:32.384Z,20.77
2018-07-04T00:22:12.029Z,25.57
2018-07-04T00:24:51.699Z,20.40
2018-07-04T00:27:31.410Z,28.70
2018-07-04T00:30:11.169Z,29.67
2018-07-04T00:32:51.054Z,30.53
2018-07-04T00:35:30.732Z,32.00
2018-07-04T00:38:10.553Z,29.57
2018-07-04T00:40:50.341Z,37.50
2018-07-04T00:43:29.984Z,32.30
2018-07-04T00:46:09.646Z,36.90
2018-07-04T00:48:49.490Z,35.73
2018-07-04T00:51:29.197Z,36.83
2018-07-04T00:54:08.964Z,38.00
2018-07-04T00:56:48.788Z,27.67
2018-07-04T00:59:28.525Z,32.10
2018-07-04T01:02:08.204Z,27.03
2018-07-04T01:04:47.945Z,33.63
2018-07-04T01:07:27.800Z,29.63
2018-07-04T01:10:07.565Z,32.77
2018-07-04T01:12:47.213Z,29.03
2018-07-04T01:15:26.878Z,30.10
2018-07-04T01:18:06.537Z,31.80
2018-07-04T01:20:51.845Z,32.67
2018-07-04T01:23:31.605Z,28.97
2018-07-04T01:26:11.222Z,28.13
2018-07-04T01:28:47.892Z,26.13
2018-07-04T01:31:27.694Z,25.63
2018-07-04T01:34:07.962Z,23.17
2018-07-04T01:36:48.108Z,24.50
2018-07-04T01:39:28.396Z,23.53
2018-07-04T01:42:08.274Z,27.93
2018-07-04T01:44:48.072Z,19.47
2018-07-04T01:47:27.761Z,24.53
2018-07-04T01:50:07.540Z,19.90
2018-07-04T01:52:47.332Z,17.87
2018-07-04T01:55:27.241Z,19.37
2018-07-04T01:58:01.094Z,21.87
2018-07-04T02:00:40.880Z,19.03
2018-07-04T02:03:20.544Z,26.00
2018-07-04T02:06:00.114Z,21.10
2018-07-04T02:08:39.711Z,22.07
2018-07-04T02:11:19.596Z,21.37
2018-07-04T02:13:59.321Z,20.93
2018-07-04T02:16:39.201Z,22.47
2018-07-04T02:19:19.133Z,23.60
2018-07-04T02:21:58.924Z,25.53
2018-07-04T02:24:38.657Z,26.90
2018-07-04T02:27:18.417Z,25.93
2018-07-04T02:29:58.092Z,25.17
2018-07-04T02:32:41.426Z,24.93
2018-07-04T02:35:21.013Z,27.13
2018-07-04T02:38:00.897Z,29.40
2018-07-04T02:40:40.565Z,30.97
2018-07-04T02:43:20.313Z,26.70
2018-07-04T02:46:00.075Z,27.47
2018-07-04T02:48:40.038Z,29.63
2018-07-04T02:51:19.665Z,24.50
2018-07-04T02:53:59.337Z,24.97
2018-07-04T02:56:39.185Z,19.80
2018-07-04T02:59:18.837Z,26.00
2018-07-04T03:01:58.512Z,27.83
2018-07-04T03:04:38.320Z,25.37
2018-07-04T03:07:17.965Z,22.57
2018-07-04T03:09:57.657Z,19.97
2018-07-04T03:12:37.633Z,19.40
2018-07-04T03:15:17.291Z,18.33
2018-07-04T03:17:56.906Z,18.90
2018-07-04T03:20:36.749Z,22.50
2018-07-04T03:23:16.537Z,20.53
2018-07-04T03:25:56.257Z,25.27
2018-07-04T03:28:35.954Z,20.80
2018-07-04T03:31:15.717Z,23.30
2018-07-04T03:33:55.509Z,20.90
2018-07-04T03:36:35.329Z,24.57
2018-07-04T03:39:15.085Z,23.57
2018-07-04T03:41:54.792Z,23.53
2018-07-04T03:44:34.393Z,23.90
2018-07-04T03:47:14.085Z,16.20
2018-07-04T03:49:53.750Z,16.47
2018-07-04T03:52:33.597Z,20.33
2018-07-04T03:55:13.457Z,17.67
2018-07-04T03:57:53.381Z,21.57
2018-07-04T04:00:33.056Z,14.73
2018-07-04T04:03:12.701Z,14.20
2018-07-04T04:05:52.373Z,16.13
2018-07-04T04:08:32.001Z,14.30
2018-07-04T04:11:11.850Z,20.93
2018-07-04T04:13:51.548Z,16.27
2018-07-04T04:16:31.285Z,18.63
2018-07-04T04:19:11.042Z,25.17
2018-07-04T04:21:50.845Z,27.47
2018-07-04T04:24:30.557Z,16.50
2018-07-04T04:27:10.219Z,17.53
2018-07-04T04:29:49.928Z,17.90
2018-07-04T04:32:29.816Z,31.73
2018-07-04T04:35:09.549Z,24.07
2018-07-04T04:37:49.316Z,27.20
2018-07-04T04:40:29.059Z,26.03
2018-07-04T04:43:08.805Z,38.07
2018-07-04T04:45:48.600Z,39.20
2018-07-04T04:48:28.337Z,29.13
2018-07-04T04:51:08.213Z,19.30
2018-07-04T04:53:48.030Z,22.53
2018-07-04T04:56:28.751Z,33.80
2018-07-04T04:59:08.549Z,39.27
2018-07-04T05:01:48.403Z,29.27
2018-07-04T05:04:28.013Z,26.47
2018-07-04T05:07:07.925Z,29.67
2018-07-04T05:09:47.741Z,26.60
2018-07-04T05:12:27.477Z,45.43
2018-07-04T05:15:07.309Z,44.73
2018-07-04T05:17:47.081Z,31.67
2018-07-04T05:20:26.661Z,34.50
2018-07-04T05:23:06.541Z,30.07
2018-07-04T05:25:46.306Z,39.50
2018-07-04T05:28:26.109Z,25.57
2018-07-04T05:31:06.080Z,29.27
2018-07-04T05:33:45.856Z,31.73
2018-07-04T05:36:25.709Z,40.10
2018-07-04T05:39:05.794Z,30.23
2018-07-04T05:41:45.867Z,34.07
2018-07-04T05:44:25.820Z,40.83
2018-07-04T05:47:05.609Z,42.10
2018-07-04T05:49:45.301Z,39.83
2018-07-04T05:52:25.002Z,36.27
2018-07-04T05:55:04.825Z,34.33
2018-07-04T05:57:44.577Z,45.33
2018-07-04T06:00:24.305Z,31.53
2018-07-04T06:03:04.216Z,40.97
2018-07-04T06:05:44.007Z,44.77
2018-07-04T06:08:23.582Z,32.83
2018-07-04T06:11:04.297Z,39.77
2018-07-04T06:13:44.001Z,37.13
2018-07-04T06:16:23.780Z,28.07
2018-07-04T06:19:03.485Z,20.77
2018-07-04T06:21:43.129Z,27.23
2018-07-04T06:24:22.724Z,22.83
2018-07-04T06:27:02.521Z,27.93
2018-07-04T06:29:42.219Z,29.13
2018-07-04T06:32:22.003Z,26.37
2018-07-04T06:35:01.845Z,25.93
2018-07-04T06:37:39.504Z,28.43
2018-07-04T06:40:07.216Z,22.20
2018-07-04T06:42:35.336Z,43.33
2018-07-04T06:45:02.700Z,21.37
2018-07-04T06:47:30.153Z,22.70
2018-07-04T06:49:57.515Z,27.00
2018-07-04T06:52:24.893Z,23.30
2018-07-04T06:54:52.449Z,36.43
2018-07-04T06:57:20.775Z,22.63
2018-07-04T06:59:48.832Z,21.83
2018-07-04T07:02:20.322Z,27.57
2018-07-04T07:05:01.104Z,20.70
2018-07-04T07:07:40.961Z,28.27
2018-07-04T07:10:20.705Z,35.47
2018-07-04T07:13:00.272Z,21.27
2018-07-04T07:15:40.219Z,25.67
2018-07-04T07:18:20.038Z,32.87
2018-07-04T07:20:59.657Z,24.10
2018-07-04T07:23:39.425Z,28.00
2018-07-04T07:26:19.177Z,23.80
2018-07-04T07:28:58.997Z,23.87
2018-07-04T07:31:38.765Z,20.57
2018-07-04T07:34:18.603Z,21.60
2018-07-04T07:36:58.398Z,28.23
2018-07-04T07:39:38.290Z,23.20
2018-07-04T07:42:18.081Z,22.07
2018-07-04T07:44:57.941Z,24.90
2018-07-04T07:47:37.633Z,29.27
2018-07-04T07:50:17.312Z,28.57
2018-07-04T07:52:57.168Z,30.83
2018-07-04T07:55:37.116Z,27.43
2018-07-04T07:58:17.107Z,20.17
2018-07-04T08:00:56.875Z,25.77
2018-07-04T08:03:36.674Z,23.87
2018-07-04T08:06:16.449Z,28.30
2018-07-04T08:08:56.327Z,26.30
2018-07-04T08:11:36.178Z,26.70
2018-07-04T08:14:15.873Z,26.07
2018-07-04T08:16:55.676Z,27.40
2018-07-04T08:19:35.351Z,34.05
2018-07-04T08:22:15.060Z,29.90
2018-07-04T08:24:54.672Z,33.00
2018-07-04T08:27:34.477Z,29.75
2018-07-04T08:30:14.133Z,34.48
2018-07-04T08:32:53.928Z,33.65
2018-07-04T08:35:33.757Z,32.60
2018-07-04T08:38:13.610Z,35.17
2018-07-04T08:40:53.397Z,24.23
2018-07-04T08:43:33.020Z,36.70
2018-07-04T08:46:12.769Z,35.78
2018-07-04T08:48:52.655Z,29.57
2018-07-04T08:51:32.261Z,26.27
2018-07-04T08:54:12.024Z,31.82
2018-07-04T08:56:51.720Z,30.27
2018-07-04T08:59:31.605Z,38.90
2018-07-04T09:02:11.351Z,41.70
2018-07-04T09:04:51.197Z,40.23
2018-07-04T09:07:30.969Z,29.40
2018-07-04T09:10:10.804Z,23.25
2018-07-04T09:12:50.508Z,39.70
2018-07-04T09:15:30.221Z,23.07
2018-07-04T09:18:09.807Z,32.48
2018-07-04T09:20:49.469Z,29.57
2018-07-04T09:23:29.083Z,27.73
2018-07-04T09:26:08.940Z,22.50
2018-07-04T09:28:48.672Z,27.13
2018-07-04T09:31:28.594Z,36.15
2018-07-04T09:34:08.485Z,27.50
2018-07-04T09:36:48.380Z,30.60
2018-07-04T09:39:28.109Z,23.67
2018-07-04T09:42:07.861Z,30.80
2018-07-04T09:44:47.656Z,23.43
2018-07-04T09:47:27.627Z,25.97
2018-07-04T09:50:07.297Z,34.27
2018-07-04T09:52:47.000Z,46.00
2018-07-04T09:55:20.645Z,54.67
2018-07-04T09:58:00.572Z,58.63
2018-07-04T10:00:45.517Z,71.37
2018-07-04T10:03:25.330Z,57.23
2018-07-04T10:06:05.133Z,53.43
2018-07-04T10:08:44.658Z,42.17
2018-07-04T10:11:24.342Z,45.27
2018-07-04T10:14:04.265Z,46.87
2018-07-04T10:16:43.924Z,34.90
2018-07-04T10:19:23.814Z,39.90
2018-07-04T10:22:03.633Z,38.60
2018-07-04T10:24:37.379Z,33.57
2018-07-04T10:27:17.116Z,19.50
2018-07-04T10:29:56.760Z,21.13
2018-07-04T10:32:36.493Z,20.70
2018-07-04T10:35:16.377Z,21.60
2018-07-04T10:37:55.957Z,22.63
2018-07-04T10:40:35.797Z,20.33
2018-07-04T10:43:15.689Z,20.93
2018-07-04T10:45:55.398Z,20.30
2018-07-04T10:48:35.204Z,20.03
2018-07-04T10:51:14.910Z,18.13
2018-07-04T10:53:54.641Z,17.60
2018-07-04T10:56:34.365Z,19.77
2018-07-04T10:59:14.179Z,19.47
2018-07-04T11:01:53.942Z,17.33
2018-07-04T11:04:33.848Z,18.23
2018-07-04T11:07:13.542Z,18.00
2018-07-04T11:09:53.318Z,17.57
2018-07-04T11:12:33.048Z,21.20
2018-07-04T11:15:12.851Z,24.87
2018-07-04T11:17:52.574Z,29.23
2018-07-04T11:20:32.623Z,20.57
2018-07-04T11:23:12.565Z,22.43
2018-07-04T11:25:52.270Z,31.93
2018-07-04T11:28:32.065Z,32.73
2018-07-04T12:14:52.537Z,10.80
2018-07-04T12:17:19.918Z,11.00
2018-07-04T12:19:47.294Z,10.87
2018-07-04T12:22:14.657Z,9.97
2018-07-04T12:24:42.018Z,11.00
2018-07-04T12:27:09.429Z,11.12
2018-07-04T12:29:36.793Z,9.97
2018-07-04T12:32:04.193Z,9.60
2018-07-04T12:34:31.537Z,9.90
2018-07-04T12:36:58.913Z,9.30
2018-07-04T12:39:26.273Z,8.30
2018-07-04T12:41:53.625Z,8.87
2018-07-04T12:44:21.013Z,9.00
2018-07-04T12:46:48.374Z,9.07
2018-07-04T12:49:15.818Z,9.27
2018-07-04T12:51:43.185Z,9.67
2018-07-04T12:54:15.847Z,10.40
2018-07-04T12:56:55.484Z,9.33
2018-07-04T12:59:35.709Z,9.60
2018-07-04T13:02:15.690Z,9.63
2018-07-04T13:04:55.309Z,9.37
2018-07-04T13:07:35.031Z,9.40
2018-07-04T13:10:14.963Z,9.50
2018-07-04T13:12:54.660Z,9.60
2018-07-04T13:15:34.337Z,10.33
2018-07-04T13:18:13.973Z,10.90
2018-07-04T13:20:53.879Z,10.80
2018-07-04T13:23:33.573Z,10.83
2018-07-04T13:26:13.564Z,10.73
2018-07-04T13:28:53.622Z,12.27
2018-07-04T13:31:33.378Z,12.30
2018-07-04T13:34:07.161Z,13.30
2018-07-04T13:36:47.106Z,13.80
2018-07-04T13:39:26.737Z,13.83
2018-07-04T13:42:06.325Z,13.67
2018-07-04T13:44:45.889Z,14.70
2018-07-04T13:47:25.634Z,14.17
2018-07-04T13:50:05.325Z,14.53
2018-07-04T13:52:45.213Z,13.63
2018-07-04T13:55:24.909Z,14.80
2018-07-04T13:58:05.074Z,13.47
2018-07-04T14:00:44.912Z,14.63
2018-07-04T14:03:24.673Z,14.00
2018-07-04T14:06:04.565Z,13.90
2018-07-04T14:08:44.209Z,13.73
2018-07-04T14:11:23.941Z,12.13
2018-07-04T14:14:03.789Z,11.53
2018-07-04T14:16:43.558Z,10.97
2018-07-04T14:19:23.382Z,12.43
2018-07-04T14:22:03.193Z,11.23
2018-07-04T14:24:43.033Z,11.77
2018-07-04T14:27:22.808Z,10.60
2018-07-04T14:30:02.690Z,10.70
2018-07-04T14:32:42.457Z,11.03
2018-07-04T14:35:22.333Z,10.30
2018-07-04T14:38:02.043Z,10.43
2018-07-04T14:40:41.606Z,9.98
2018-07-04T14:43:21.780Z,10.07
2018-07-04T14:46:01.602Z,10.58
2018-07-04T14:48:41.297Z,9.63
2018-07-04T14:51:20.937Z,10.53
2018-07-04T14:54:00.861Z,10.72
2018-07-04T14:56:40.589Z,10.97
2018-07-04T14:59:20.331Z,10.78
2018-07-04T15:02:00.152Z,11.03
2018-07-04T15:04:40.047Z,10.70
2018-07-04T15:07:19.950Z,10.60
2018-07-04T15:09:59.749Z,10.70
2018-07-04T15:12:39.593Z,10.05
2018-07-04T15:15:19.513Z,10.20
2018-07-04T15:17:59.296Z,10.15
2018-07-04T15:20:38.985Z,10.65
2018-07-04T15:23:18.690Z,10.60
2018-07-04T15:25:58.719Z,10.45
2018-07-04T15:28:38.501Z,10.55
2018-07-04T15:31:18.068Z,10.93
2018-07-04T15:33:57.905Z,10.65
2018-07-04T15:36:37.799Z,11.40
2018-07-04T15:39:17.505Z,11.12
2018-07-04T15:41:51.182Z,11.60
2018-07-04T15:44:30.948Z,10.58
2018-07-04T15:47:10.693Z,12.03
2018-07-04T15:49:50.864Z,11.08
2018-07-04T15:52:31.293Z,10.90
2018-07-04T15:55:11.097Z,10.60
2018-07-04T15:57:51.036Z,10.63
2018-07-04T16:00:31.217Z,10.55
2018-07-04T16:03:11.045Z,9.70
2018-07-04T16:05:51.300Z,10.53
2018-07-04T16:08:31.490Z,9.85
2018-07-04T16:11:11.202Z,9.73
2018-07-04T16:13:50.898Z,10.20
2018-07-04T16:16:31.202Z,10.05
2018-07-04T16:19:10.957Z,10.18
2018-07-04T16:21:50.753Z,10.68
2018-07-04T16:24:30.595Z,10.23
2018-07-04T16:27:10.371Z,10.38
2018-07-04T16:29:49.993Z,10.70
2018-07-04T16:32:29.822Z,10.50
2018-07-04T16:35:09.602Z,9.78
2018-07-04T16:37:49.251Z,9.98
2018-07-04T16:40:29.147Z,10.58
2018-07-04T16:43:08.962Z,10.32
2018-07-04T16:45:48.743Z,10.80
2018-07-04T16:48:28.341Z,10.68
2018-07-04T16:51:08.097Z,9.73
2018-07-04T16:53:47.869Z,9.47
2018-07-04T16:56:27.893Z,10.45
2018-07-04T16:59:07.761Z,9.68
2018-07-04T17:01:47.393Z,9.27
2018-07-04T17:04:21.136Z,9.70
2018-07-04T17:07:00.881Z,9.70
2018-07-04T17:09:40.597Z,9.70
2018-07-04T17:12:20.296Z,9.93
2018-07-04T17:15:00.089Z,10.03
2018-07-04T17:17:39.822Z,9.10
2018-07-04T17:20:19.528Z,8.73
2018-07-04T17:22:59.265Z,9.95
2018-07-04T17:25:38.918Z,9.45
2018-07-04T17:28:18.768Z,9.95
2018-07-04T17:30:58.669Z,10.15
2018-07-04T17:33:38.558Z,8.33
2018-07-04T17:36:18.261Z,9.48
2018-07-04T17:38:58.109Z,9.10
2018-07-04T17:41:37.893Z,8.53
2018-07-04T17:44:17.532Z,9.43
2018-07-04T17:46:57.456Z,9.13
2018-07-04T17:49:37.157Z,9.48
2018-07-04T17:52:16.832Z,9.85
2018-07-04T17:54:56.488Z,9.25
2018-07-04T17:57:36.362Z,9.70
2018-07-04T18:00:16.193Z,9.53
2018-07-04T18:02:55.834Z,9.53
2018-07-04T18:05:35.877Z,9.50
2018-07-04T18:08:15.681Z,9.53
2018-07-04T18:10:55.477Z,9.43
2018-07-04T18:13:35.149Z,10.20
2018-07-04T18:16:08.840Z,9.47
2018-07-04T18:18:48.688Z,9.90
2018-07-04T18:21:28.497Z,10.53
2018-07-04T18:24:08.832Z,10.00
2018-07-04T18:26:48.992Z,10.60
2018-07-04T18:29:28.849Z,10.27
2018-07-04T18:32:08.509Z,9.30
2018-07-04T18:34:48.237Z,10.00
2018-07-04T18:37:28.081Z,10.17
2018-07-04T18:40:07.809Z,10.83
2018-07-04T18:42:47.505Z,10.80
2018-07-04T18:45:27.277Z,11.20
2018-07-04T18:48:07.223Z,10.93
2018-07-04T18:50:47.122Z,10.60
2018-07-04T18:53:26.825Z,11.57
2018-07-04T18:56:06.709Z,11.60
2018-07-04T18:58:46.465Z,10.80
2018-07-04T19:01:26.149Z,11.20
2018-07-04T19:04:05.964Z,11.97
2018-07-04T19:06:45.753Z,11.23
2018-07-04T19:09:25.568Z,11.13
2018-07-04T19:12:05.246Z,11.83
2018-07-04T19:14:45.141Z,11.47
2018-07-04T19:17:24.897Z,10.60
2018-07-04T19:20:04.618Z,10.17
2018-07-04T19:22:44.249Z,10.93
2018-07-04T19:25:23.794Z,10.80
2018-07-04T19:28:03.626Z,10.73
2018-07-04T19:30:43.439Z,10.70
2018-07-04T19:33:23.331Z,11.43
2018-07-04T19:36:02.993Z,11.67
2018-07-04T19:38:42.901Z,11.50
2018-07-04T19:41:22.662Z,10.00
2018-07-04T19:44:02.409Z,11.00
2018-07-04T19:46:42.113Z,10.87
2018-07-04T19:49:21.928Z,10.47
2018-07-04T19:52:01.929Z,11.43
2018-07-04T19:54:41.529Z,12.10
2018-07-04T19:57:21.239Z,11.70
2018-07-04T20:00:00.869Z,11.50
2018-07-04T20:02:40.743Z,12.33
2018-07-04T20:05:20.485Z,11.93
2018-07-04T20:08:00.227Z,13.13
2018-07-04T20:10:39.996Z,12.13
2018-07-04T20:13:19.801Z,11.53
2018-07-04T20:15:59.994Z,11.80
2018-07-04T20:18:39.858Z,11.57
2018-07-04T20:21:20.041Z,11.17
2018-07-04T20:23:59.696Z,11.93
2018-07-04T20:26:39.473Z,11.67
2018-07-04T20:29:19.405Z,12.87
2018-07-04T20:31:59.169Z,12.23
2018-07-04T20:34:38.949Z,11.90
2018-07-04T20:37:18.559Z,12.53
2018-07-04T20:39:58.293Z,12.67
2018-07-04T20:42:38.158Z,12.80
2018-07-04T20:45:17.852Z,12.30
2018-07-04T20:47:58.030Z,12.77
2018-07-04T20:50:37.636Z,11.43
2018-07-04T20:53:17.352Z,12.17
2018-07-04T20:55:57.146Z,12.17
2018-07-04T20:58:36.990Z,12.17
2018-07-04T21:01:16.626Z,12.27
2018-07-04T21:03:56.228Z,12.43
2018-07-04T21:06:36.107Z,10.93
2018-07-04T21:09:15.655Z,11.50
2018-07-04T21:11:55.640Z,11.63
2018-07-04T21:14:35.380Z,12.20
2018-07-04T21:17:15.052Z,11.97
2018-07-04T21:19:54.941Z,12.23
2018-07-04T21:22:34.770Z,11.60
2018-07-04T21:25:14.445Z,13.03
2018-07-04T21:27:54.130Z,11.90
2018-07-04T21:30:33.890Z,12.00
2018-07-04T21:33:13.629Z,12.73
2018-07-04T21:35:53.285Z,12.60
2018-07-04T21:38:33.057Z,11.80
2018-07-04T21:41:12.893Z,11.87
2018-07-04T21:43:52.665Z,11.90
2018-07-04T21:46:32.394Z,12.40
2018-07-04T21:49:12.084Z,11.67
2018-07-04T21:51:51.871Z,12.40
2018-07-04T21:54:31.709Z,12.70
2018-07-04T21:57:11.418Z,12.03
2018-07-04T21:59:51.220Z,11.93
2018-07-04T22:02:31.078Z,12.33
2018-07-04T22:05:10.839Z,12.23
2018-07-04T22:07:50.485Z,12.13
2018-07-04T22:10:30.249Z,12.97
2018-07-04T22:13:10.104Z,11.83
2018-07-04T22:15:49.815Z,12.90
2018-07-04T22:18:29.526Z,12.37
2018-07-04T22:21:09.316Z,13.50
2018-07-04T22:23:49.010Z,12.43
2018-07-04T22:26:28.807Z,12.50
2018-07-04T22:29:08.570Z,12.37
2018-07-04T22:31:48.462Z,13.17
2018-07-04T22:34:28.162Z,12.50
2018-07-04T22:37:07.889Z,12.23
2018-07-04T22:39:47.683Z,12.07
2018-07-04T22:42:27.300Z,12.10
2018-07-04T22:45:07.065Z,12.67
2018-07-04T22:47:46.784Z,11.83
2018-07-04T22:50:26.709Z,12.33
2018-07-04T22:53:06.394Z,12.33
2018-07-04T22:55:46.134Z,12.27
2018-07-04T22:58:25.893Z,12.20
2018-07-04T23:01:05.550Z,11.90
2018-07-04T23:03:45.246Z,11.73
2018-07-04T23:06:25.029Z,12.50
2018-07-04T23:09:05.354Z,12.17
2018-07-04T23:11:45.103Z,11.90
2018-07-04T23:14:24.897Z,12.57
2018-07-04T23:17:04.672Z,12.03
2018-07-04T23:19:44.480Z,12.40
2018-07-04T23:22:24.045Z,11.70
2018-07-04T23:25:04.322Z,11.33
2018-07-04T23:27:44.058Z,12.57
2018-07-04T23:30:23.812Z,12.23
2018-07-04T23:33:03.565Z,12.37
2018-07-04T23:35:43.373Z,11.27
2018-07-04T23:38:22.968Z,11.50
2018-07-04T23:41:02.769Z,12.63
2018-07-04T23:43:42.477Z,10.87
2018-07-04T23:46:22.196Z,11.67
2018-07-04T23:49:02.025Z,11.50
2018-07-04T23:51:41.772Z,11.07
2018-07-04T23:54:21.478Z,11.47
2018-07-04T23:57:01.265Z,11.20
2018-07-04T23:59:40.996Z,11.37
